Andover, CT (06232)

11:06 PM EST on December 03, 2016 (GMT -0500)
Shoddy Mill Rd Andover CT | | Change Station

Elev 538 ft 41.74 °N, 72.40 °W | Updated 6 seconds ago

Clear
Clear
34.0 °F
Feels Like 34 °F
N
2.0
Wind Variable Wind from NNW
Gusts 4.0 mph

Today
High -- | Low -- °F
--% Chance of Precip.
Yesterday
High -- | Low -- °F
Precip. -- in
Pressure 30.10 in
Visibility 10.0 miles
Clouds Clear
Windchill 34 °F
Dew Point 24 °F
Humidity 64%
Rainfall 0.00 in
Snow Depth Not available.
6:59 AM 4:19 PM
Waxing Crescent, 19% visible
METAR KIJD 040352Z AUTO 30005KT 10SM CLR 03/M06 A3010 RMK AO2 SLP192 T00331061
Pressure 30.10 in
Visibility 10.0 miles
Clouds Clear
Windchill 34 °F
Dew Point 24 °F
Humidity 64%
Rainfall 0.00 in
Snow Depth Not available.
6:59 AM 4:19 PM
Waxing Crescent, 19% visible
METAR KIJD 040352Z AUTO 30005KT 10SM CLR 03/M06 A3010 RMK AO2 SLP192 T00331061

10-Day Weather Forecast

Almanac

Astronomy

Dec. 03, 2016 Rise Set
Actual Time
Civil Twilight
Nautical Twilight
Astronomical Twilight
Moon
Length of Visible Light
Length of Day
Tomorrow will be .
, % of the Moon is Illuminated

Today's Extremes

State Highs State Lows

Community

WunderPhotos

Upload Photos

1,955,573 photos uploaded!

WunderBlog® & News

Nearby

Air Quality

  Air Quality AQ Index Pollutant
Not available.

Snow Depth

Station Depth Elevation

Earthquake Activity

City Distance Mag. Time & Date
Minimum magnitude displayed is 2.5.

Coastal Water Temperatures

Place Temperature

Stations

Nearby Weather Stations

Station Location Temp. Windchill Dew Point Humidity Wind Precip. Elev Updated Type
                   

Watches & Warnings

There are currently no watches in effect.